Pagina principale
METAR-TAF:

METAR-TAF

Aeroporti :

Aeroporto di Rimini-Miramare

Rimini, Italia

latitudine: 44-02N, longitudine: 012-37E, altezza: 12 m

Osservazione

Il bollettino è stato emesso 38 minuti fa, alle 23:50 UTC
Vento 2 kt da sud/sud-est
Temperature 17°C
Umidità 68%
Pressione 1018 hPa
Visibilità 10 km o più

METAR: LIPR 142350Z AUTO 16002KT 9999 NCD 17/11 Q1018

Ora: 02:28 (00:28 UTC)

Previsione

Il bollettino è stato emesso 1 ora e 28 minuti fa, alle 23:00 UTC
Previsione valida dal 15 alle 00 UTC al 15 alle 09 UTC
Vento 6 kt da sud-est
Visibilità 10 km o più
nessuna nube inferiore a 1500 m e nessun cumulonembo

TAF: LIPR 142300Z 1500/1509 13006KT CAVOK

Osservazioni e previsioni meteorologiche di più di 4000 aeroporti (messaggi METAR e TAF).

Le stazioni disponibili sono rappresentate dai dischi gialli e rossi sulla carta.

Puntare il mouse per vedere il nome della stazione.

Clicca sopra per visualizzare le osservazioni e previsioni meteorologiche.

Per cambiare la mappa : fare clic sui pulsanti verdi con una croce nera per ingrandire, il pulsante verde con un trattino per diminuire, o sulla freccia verde per le mappe adiacenti.


METAR-TAF: